createdAt,value
2022-08-26T00:00:19.986Z,80.20
2022-08-26T00:02:47.951Z,79.40
2022-08-26T00:05:16.370Z,81.10
2022-08-26T00:07:45.515Z,81.80
2022-08-26T00:10:15.789Z,83.10
2022-08-26T00:12:43.958Z,83.90
2022-08-26T00:15:15.873Z,83.80
2022-08-26T00:17:44.972Z,84.90
2022-08-26T00:20:16.699Z,84.30
2022-08-26T00:22:44.901Z,84.70
2022-08-26T00:25:15.962Z,85.20
2022-08-26T00:27:45.710Z,86.00
2022-08-26T00:30:16.989Z,85.90
2022-08-26T00:32:51.324Z,86.20
2022-08-26T00:35:20.683Z,87.10
2022-08-26T00:37:48.877Z,86.80
2022-08-26T00:40:22.350Z,85.90
2022-08-26T00:42:50.759Z,85.80
2022-08-26T00:45:18.941Z,84.60
2022-08-26T00:47:51.244Z,84.90
2022-08-26T00:50:24.033Z,86.00
2022-08-26T00:52:55.687Z,85.70
2022-08-26T00:55:34.633Z,85.90
2022-08-26T00:58:08.518Z,84.80
2022-08-26T01:00:36.594Z,84.40
2022-08-26T01:03:05.599Z,85.30
2022-08-26T01:05:40.345Z,85.10
2022-08-26T01:08:08.372Z,85.80
2022-08-26T01:10:37.915Z,86.90
2022-08-26T01:13:10.163Z,86.40
2022-08-26T01:15:43.407Z,85.70
2022-08-26T01:18:13.839Z,86.80
2022-08-26T01:20:52.827Z,87.10
2022-08-26T01:23:29.312Z,87.10
2022-08-26T01:26:01.668Z,87.40
2022-08-26T01:28:33.737Z,87.70
2022-08-26T01:31:05.348Z,87.20
2022-08-26T01:33:42.096Z,86.40
2022-08-26T01:36:12.961Z,86.70
2022-08-26T01:38:43.724Z,86.40
2022-08-26T01:41:16.243Z,87.00
2022-08-26T01:43:51.867Z,86.40
2022-08-26T01:46:21.976Z,88.00
2022-08-26T01:48:54.482Z,89.20
2022-08-26T01:51:25.572Z,89.60
2022-08-26T01:53:57.888Z,89.30
2022-08-26T01:56:33.160Z,87.70
2022-08-26T01:59:07.920Z,87.40
2022-08-26T02:01:37.797Z,89.80
2022-08-26T02:04:16.060Z,89.30
2022-08-26T02:06:45.317Z,90.50
2022-08-26T02:09:15.756Z,90.80
2022-08-26T02:11:45.122Z,90.60
2022-08-26T02:14:17.965Z,89.50
2022-08-26T02:16:50.350Z,89.60
2022-08-26T02:19:23.538Z,90.10
2022-08-26T02:21:53.265Z,90.30
2022-08-26T02:24:27.509Z,90.40
2022-08-26T02:26:57.593Z,90.80
2022-08-26T02:29:31.824Z,91.50
2022-08-26T02:32:00.168Z,91.90
2022-08-26T02:34:31.948Z,92.00
2022-08-26T02:37:01.757Z,92.40
2022-08-26T02:39:32.256Z,92.50
2022-08-26T02:42:00.348Z,92.90
2022-08-26T02:44:31.602Z,93.90
2022-08-26T02:47:01.789Z,94.80
2022-08-26T02:49:30.437Z,95.10
2022-08-26T02:52:01.942Z,95.50
2022-08-26T02:54:31.526Z,95.60
2022-08-26T02:57:01.630Z,95.10
2022-08-26T02:59:31.332Z,95.50
2022-08-26T03:02:00.403Z,96.00
2022-08-26T03:04:29.524Z,95.40
2022-08-26T03:07:01.441Z,95.60
2022-08-26T03:09:30.975Z,95.00
2022-08-26T03:11:59.051Z,95.40
2022-08-26T03:14:27.682Z,96.20
2022-08-26T03:16:57.862Z,96.60
2022-08-26T03:19:27.733Z,96.30
2022-08-26T03:21:57.885Z,96.40
2022-08-26T03:24:26.607Z,96.50
2022-08-26T03:26:56.033Z,97.30
2022-08-26T03:29:42.026Z,97.20
2022-08-26T03:32:10.994Z,97.00
2022-08-26T03:34:39.022Z,97.20
2022-08-26T03:37:07.705Z,97.70
2022-08-26T03:39:36.217Z,98.40
2022-08-26T03:42:06.259Z,98.90
2022-08-26T03:44:37.030Z,99.00
2022-08-26T03:47:10.198Z,99.30
2022-08-26T03:49:38.456Z,98.80
2022-08-26T03:52:07.701Z,99.30
2022-08-26T03:54:35.683Z,99.40
2022-08-26T03:57:05.332Z,99.00
2022-08-26T03:59:33.783Z,98.90
2022-08-26T04:02:02.036Z,99.50
2022-08-26T04:04:30.721Z,99.30
2022-08-26T04:07:00.940Z,98.80
2022-08-26T04:09:29.177Z,98.90
2022-08-26T04:11:58.624Z,99.00
2022-08-26T04:14:31.419Z,98.60
2022-08-26T04:17:00.576Z,98.50
2022-08-26T04:19:28.572Z,99.00
2022-08-26T04:21:56.685Z,99.60
2022-08-26T04:24:27.998Z,99.80
2022-08-26T04:26:56.546Z,99.30
2022-08-26T04:29:28.233Z,98.80
2022-08-26T04:31:57.000Z,98.70
2022-08-26T04:34:29.393Z,98.30
2022-08-26T04:36:57.776Z,98.20
2022-08-26T04:39:27.675Z,98.50
2022-08-26T04:41:57.873Z,98.80
2022-08-26T04:44:27.629Z,98.50
2022-08-26T04:46:58.380Z,96.80
2022-08-26T04:49:27.636Z,96.50
2022-08-26T04:51:56.083Z,95.50
2022-08-26T04:54:25.131Z,95.00
2022-08-26T04:56:53.289Z,94.70
2022-08-26T04:59:21.339Z,94.70
2022-08-26T05:01:52.290Z,94.90
2022-08-26T05:04:22.138Z,95.70
2022-08-26T05:06:50.525Z,95.30
2022-08-26T05:09:20.318Z,95.50
2022-08-26T05:11:52.073Z,95.50
2022-08-26T05:14:21.166Z,95.60
2022-08-26T05:16:50.755Z,95.70
2022-08-26T05:19:19.488Z,95.60
2022-08-26T05:21:49.470Z,95.30
2022-08-26T05:24:18.280Z,95.40
2022-08-26T05:26:46.951Z,95.30
2022-08-26T05:29:16.134Z,95.20
2022-08-26T05:31:44.956Z,95.30
2022-08-26T05:34:13.322Z,95.60
2022-08-26T05:36:42.170Z,95.50
2022-08-26T05:39:11.833Z,95.70
2022-08-26T05:41:42.102Z,95.70
2022-08-26T05:44:14.037Z,95.80
2022-08-26T05:46:43.965Z,95.60
2022-08-26T05:49:13.072Z,95.40
2022-08-26T05:51:41.851Z,95.30
2022-08-26T05:54:11.307Z,95.20
2022-08-26T05:56:40.306Z,95.20
2022-08-26T05:59:15.353Z,95.20
2022-08-26T06:01:44.715Z,95.60
2022-08-26T06:04:13.119Z,95.50
2022-08-26T06:06:42.940Z,95.70
2022-08-26T06:09:13.082Z,95.70
2022-08-26T06:11:41.167Z,95.40
2022-08-26T06:14:11.811Z,95.60
2022-08-26T06:16:45.234Z,95.60
2022-08-26T06:19:19.283Z,95.80
2022-08-26T06:21:54.310Z,95.60
2022-08-26T06:24:41.940Z,95.60
2022-08-26T06:27:13.769Z,95.10
2022-08-26T06:29:43.280Z,94.80
2022-08-26T06:32:11.540Z,94.90
2022-08-26T06:34:40.583Z,94.50
2022-08-26T06:37:09.920Z,94.20
2022-08-26T06:39:40.217Z,94.10
2022-08-26T06:42:11.997Z,93.70
2022-08-26T06:44:40.958Z,93.60
2022-08-26T06:47:09.178Z,93.40
2022-08-26T06:49:38.065Z,93.70
2022-08-26T06:52:07.795Z,93.40
2022-08-26T06:54:43.032Z,93.50
2022-08-26T06:57:11.466Z,93.60
2022-08-26T06:59:39.580Z,93.50
2022-08-26T07:02:09.111Z,93.20
2022-08-26T07:04:41.844Z,94.20
2022-08-26T07:07:13.986Z,93.70
2022-08-26T07:09:43.513Z,94.00
2022-08-26T07:12:12.118Z,94.50
2022-08-26T07:14:41.300Z,94.70
2022-08-26T07:17:15.656Z,94.00
2022-08-26T07:19:44.862Z,94.30
2022-08-26T07:22:14.087Z,94.70
2022-08-26T07:24:54.869Z,94.50
2022-08-26T07:27:23.944Z,94.70
2022-08-26T07:29:52.189Z,95.30
2022-08-26T07:32:22.930Z,95.10
2022-08-26T07:34:51.115Z,95.30
2022-08-26T07:37:19.693Z,95.10
2022-08-26T07:39:49.994Z,94.90
2022-08-26T07:42:19.649Z,95.20
2022-08-26T07:44:47.992Z,94.70
2022-08-26T07:47:24.906Z,94.90
2022-08-26T07:49:56.580Z,94.70
2022-08-26T07:52:27.207Z,95.20
2022-08-26T07:55:01.447Z,94.80
2022-08-26T07:57:34.506Z,95.00
2022-08-26T08:00:03.803Z,94.70
2022-08-26T08:02:31.863Z,94.60
2022-08-26T08:05:00.164Z,94.50
2022-08-26T08:07:44.979Z,94.10
2022-08-26T08:10:18.999Z,93.80
2022-08-26T08:12:49.740Z,93.80
2022-08-26T08:15:20.114Z,93.00
2022-08-26T08:17:50.508Z,93.10
2022-08-26T08:20:20.945Z,92.80
2022-08-26T08:22:51.739Z,91.50
2022-08-26T08:25:24.557Z,92.10
2022-08-26T08:27:52.651Z,92.70
2022-08-26T08:30:23.316Z,92.60
2022-08-26T08:32:51.751Z,90.70
2022-08-26T08:35:23.761Z,90.00
2022-08-26T08:37:54.782Z,90.20
2022-08-26T08:40:27.104Z,89.50
2022-08-26T08:43:01.123Z,88.40
2022-08-26T08:45:36.742Z,87.40
2022-08-26T08:48:12.854Z,90.50
2022-08-26T08:50:45.705Z,90.20
2022-08-26T08:53:16.981Z,88.40
2022-08-26T08:55:54.358Z,88.50
2022-08-26T08:58:30.182Z,89.50
2022-08-26T09:01:04.565Z,90.40
2022-08-26T09:03:46.501Z,90.60
2022-08-26T09:06:18.847Z,91.10
2022-08-26T09:08:50.087Z,91.00
2022-08-26T09:11:21.405Z,90.70
2022-08-26T09:13:52.522Z,90.80
2022-08-26T09:16:27.056Z,89.80
2022-08-26T09:19:14.441Z,88.30
2022-08-26T09:21:42.634Z,88.50
2022-08-26T09:24:11.360Z,87.00
2022-08-26T09:26:48.569Z,87.00
2022-08-26T09:29:24.832Z,86.20
2022-08-26T09:32:14.658Z,85.20
2022-08-26T09:34:55.432Z,86.70
2022-08-26T09:37:39.185Z,83.80
2022-08-26T09:40:30.386Z,83.60
2022-08-26T09:43:22.609Z,81.60
2022-08-26T09:45:58.482Z,83.00
2022-08-26T09:48:31.715Z,79.20
2022-08-26T09:51:06.909Z,84.40
2022-08-26T09:53:38.899Z,80.20
2022-08-26T09:56:18.982Z,81.50
2022-08-26T09:58:50.173Z,82.90
2022-08-26T10:01:30.099Z,85.30
2022-08-26T10:04:09.716Z,86.60
2022-08-26T10:06:47.763Z,89.90
2022-08-26T10:09:19.681Z,88.00
2022-08-26T10:11:52.105Z,88.00
2022-08-26T10:14:26.471Z,88.40
2022-08-26T10:16:59.862Z,87.30
2022-08-26T10:19:41.836Z,87.10
2022-08-26T10:22:28.870Z,86.70
2022-08-26T10:25:03.263Z,87.40
2022-08-26T10:27:40.484Z,85.90
2022-08-26T10:30:23.813Z,86.10
2022-08-26T10:32:55.793Z,85.90
2022-08-26T10:35:24.902Z,86.10
2022-08-26T10:37:57.194Z,86.10
2022-08-26T10:40:28.767Z,86.80
2022-08-26T10:43:07.213Z,85.60
2022-08-26T10:45:47.625Z,84.30
2022-08-26T10:48:22.785Z,83.90
2022-08-26T10:50:51.429Z,82.90
2022-08-26T10:53:32.697Z,84.80
2022-08-26T10:56:06.571Z,83.10
2022-08-26T10:59:02.592Z,83.70
2022-08-26T11:01:50.791Z,84.50
2022-08-26T11:04:34.940Z,83.80
2022-08-26T11:07:41.328Z,85.00
2022-08-26T11:11:04.338Z,85.10
2022-08-26T11:14:02.665Z,83.30
2022-08-26T11:16:36.013Z,82.90
2022-08-26T11:19:13.938Z,82.20
2022-08-26T11:21:49.528Z,80.20
2022-08-26T11:25:00.443Z,81.00
2022-08-26T11:27:58.042Z,81.20
2022-08-26T11:30:44.019Z,80.80
2022-08-26T11:33:59.642Z,78.20
2022-08-26T11:36:57.242Z,76.50
2022-08-26T11:39:30.457Z,75.70
2022-08-26T11:42:03.086Z,76.30
2022-08-26T11:44:40.654Z,73.00
2022-08-26T11:47:25.775Z,72.10
2022-08-26T11:50:13.162Z,72.10
2022-08-26T11:52:43.192Z,70.10
2022-08-26T11:55:16.206Z,65.50
2022-08-26T11:57:47.180Z,65.20
2022-08-26T12:00:26.847Z,64.30
2022-08-26T12:03:01.097Z,64.30
2022-08-26T12:05:37.553Z,65.90
2022-08-26T12:08:10.478Z,65.50
2022-08-26T12:10:39.721Z,65.60
2022-08-26T12:13:08.775Z,64.60
2022-08-26T12:15:36.816Z,65.10
2022-08-26T12:18:29.348Z,60.70
2022-08-26T12:21:02.365Z,59.40
2022-08-26T12:23:42.124Z,57.60
2022-08-26T12:26:19.349Z,55.40
2022-08-26T12:28:49.559Z,54.80
2022-08-26T12:31:31.197Z,53.90
2022-08-26T12:34:04.005Z,52.70
2022-08-26T12:36:36.180Z,52.60
2022-08-26T12:39:09.368Z,51.30
2022-08-26T12:41:52.902Z,51.20
2022-08-26T12:44:40.460Z,55.10
2022-08-26T12:47:12.217Z,55.50
2022-08-26T12:49:43.875Z,54.60
2022-08-26T12:52:30.765Z,55.90
2022-08-26T12:55:13.634Z,69.60
2022-08-26T12:57:43.867Z,76.70
2022-08-26T13:00:29.827Z,83.10
2022-08-26T13:02:59.405Z,85.30
2022-08-26T13:05:33.854Z,87.00
2022-08-26T13:08:17.809Z,88.00
2022-08-26T13:10:49.037Z,88.10
2022-08-26T13:13:17.003Z,88.10
2022-08-26T13:15:45.324Z,88.20
2022-08-26T13:18:13.569Z,90.40
2022-08-26T13:20:44.838Z,91.00
2022-08-26T13:23:13.478Z,90.30
2022-08-26T13:25:41.717Z,89.20
2022-08-26T13:28:09.740Z,90.10
2022-08-26T13:30:37.800Z,90.60
2022-08-26T13:33:06.196Z,91.00
2022-08-26T13:35:34.403Z,91.20
2022-08-26T13:38:03.705Z,91.40
2022-08-26T13:40:34.585Z,91.30
2022-08-26T13:43:02.861Z,91.10
2022-08-26T13:45:31.616Z,91.70
2022-08-26T13:48:00.361Z,92.00
2022-08-26T13:50:28.444Z,92.30
2022-08-26T13:52:56.458Z,92.60
2022-08-26T13:55:25.829Z,91.80
2022-08-26T13:57:53.827Z,92.40
2022-08-26T14:00:22.917Z,91.60
2022-08-26T14:02:51.252Z,90.40
2022-08-26T14:05:19.338Z,89.40
2022-08-26T14:07:47.301Z,88.20
2022-08-26T14:10:15.316Z,86.00
2022-08-26T14:12:45.698Z,82.90
2022-08-26T14:15:16.233Z,83.50
2022-08-26T14:17:46.175Z,82.30
2022-08-26T14:20:16.945Z,82.90
2022-08-26T14:23:03.397Z,80.80
2022-08-26T14:25:34.449Z,80.60
2022-08-26T14:28:04.060Z,81.40
2022-08-26T14:30:32.925Z,82.80
2022-08-26T14:33:00.960Z,83.00
2022-08-26T14:35:31.656Z,81.90
2022-08-26T14:37:59.780Z,82.30
2022-08-26T14:40:33.994Z,83.10
2022-08-26T14:43:09.472Z,84.30
2022-08-26T14:48:14.459Z,81.90
2022-08-26T14:50:42.602Z,83.10
2022-08-26T14:53:28.147Z,83.90
2022-08-26T14:55:56.276Z,82.70
2022-08-26T14:58:25.653Z,82.90
2022-08-26T15:01:04.394Z,82.20
2022-08-26T15:03:32.548Z,83.00
2022-08-26T15:06:00.658Z,84.40
2022-08-26T15:08:28.698Z,85.70
2022-08-26T15:10:56.999Z,85.50
2022-08-26T15:13:26.426Z,85.60
2022-08-26T15:15:54.420Z,86.60
2022-08-26T15:18:23.460Z,86.90
2022-08-26T15:21:11.594Z,86.70
2022-08-26T15:23:40.545Z,88.20
2022-08-26T15:26:10.517Z,88.00
2022-08-26T15:28:40.329Z,88.60
2022-08-26T15:31:11.741Z,88.40
2022-08-26T15:33:43.479Z,88.60
2022-08-26T15:36:11.661Z,89.30
2022-08-26T15:38:42.265Z,90.10
2022-08-26T15:41:10.814Z,90.30
2022-08-26T15:43:40.160Z,90.00
2022-08-26T15:46:11.853Z,89.90
2022-08-26T15:48:40.487Z,89.80
2022-08-26T15:51:09.019Z,90.30
2022-08-26T15:53:37.466Z,90.30
2022-08-26T15:56:05.769Z,90.10
2022-08-26T15:58:34.598Z,90.50
2022-08-26T16:01:05.667Z,90.40
2022-08-26T16:03:33.989Z,90.60
2022-08-26T16:06:02.667Z,90.40
2022-08-26T16:08:30.798Z,91.10
2022-08-26T16:11:05.862Z,90.70
2022-08-26T16:13:39.894Z,90.80
2022-08-26T16:16:10.532Z,91.00
2022-08-26T16:18:38.691Z,91.40
2022-08-26T16:21:12.644Z,91.30
2022-08-26T16:23:45.202Z,91.20
2022-08-26T16:26:15.115Z,91.50
2022-08-26T16:28:43.629Z,91.40
2022-08-26T16:31:14.244Z,91.80
2022-08-26T16:33:42.559Z,92.10
2022-08-26T16:36:11.164Z,92.00
2022-08-26T16:38:39.882Z,92.20
2022-08-26T16:41:08.785Z,91.80
2022-08-26T16:43:37.100Z,92.60
2022-08-26T16:46:07.326Z,93.10
2022-08-26T16:48:37.707Z,93.10
2022-08-26T16:51:06.479Z,93.40
2022-08-26T16:53:34.726Z,93.50
2022-08-26T16:56:02.769Z,93.30
2022-08-26T16:58:31.288Z,93.40
2022-08-26T17:01:00.450Z,94.00
2022-08-26T17:03:28.709Z,94.00
2022-08-26T17:05:58.582Z,94.10
2022-08-26T17:08:28.752Z,94.40
2022-08-26T17:10:57.424Z,93.90
2022-08-26T17:13:34.813Z,94.40
2022-08-26T17:16:05.237Z,94.90
2022-08-26T17:18:33.842Z,95.10
2022-08-26T17:21:04.966Z,95.40
2022-08-26T17:23:33.395Z,95.70
2022-08-26T17:26:01.413Z,95.90
2022-08-26T17:28:29.403Z,96.00
2022-08-26T17:30:58.179Z,96.50
2022-08-26T17:33:27.150Z,96.70
2022-08-26T17:35:56.001Z,96.40
2022-08-26T17:38:25.942Z,96.90
2022-08-26T17:40:55.324Z,97.10
2022-08-26T17:43:26.709Z,97.20
2022-08-26T17:46:06.824Z,97.20
2022-08-26T17:48:42.399Z,97.20
2022-08-26T17:51:19.118Z,97.60
2022-08-26T17:53:48.942Z,97.50
2022-08-26T17:56:18.614Z,97.60
2022-08-26T17:58:51.148Z,97.60
2022-08-26T18:01:20.559Z,97.70
2022-08-26T18:03:51.147Z,97.90
2022-08-26T18:06:23.492Z,97.90
2022-08-26T18:08:56.178Z,98.00
2022-08-26T18:11:24.480Z,98.20
2022-08-26T18:13:54.490Z,98.20
2022-08-26T18:16:24.668Z,98.40
2022-08-26T18:18:53.645Z,98.50
2022-08-26T18:21:24.280Z,98.40
2022-08-26T18:23:54.610Z,98.70
2022-08-26T18:26:26.146Z,98.70
2022-08-26T18:28:54.274Z,98.50
2022-08-26T18:31:24.319Z,98.20
2022-08-26T18:33:54.812Z,98.30
2022-08-26T18:36:26.537Z,98.50
2022-08-26T18:38:57.200Z,98.20
2022-08-26T18:41:27.694Z,98.50
2022-08-26T18:43:56.565Z,98.50
2022-08-26T18:46:28.206Z,98.00
2022-08-26T18:48:58.904Z,98.70
2022-08-26T18:51:29.600Z,98.80
2022-08-26T18:54:00.540Z,98.10
2022-08-26T18:56:30.712Z,98.40
2022-08-26T18:58:59.865Z,98.90
2022-08-26T19:01:31.114Z,99.40
2022-08-26T19:04:03.135Z,99.50
2022-08-26T19:06:35.590Z,99.50
2022-08-26T19:09:06.673Z,99.20
2022-08-26T19:11:42.319Z,99.50
2022-08-26T19:14:14.306Z,99.40
2022-08-26T19:16:44.742Z,99.90
2022-08-26T19:19:14.790Z,99.60
2022-08-26T19:21:48.039Z,99.90
2022-08-26T19:24:18.786Z,99.80
2022-08-26T19:26:57.771Z,99.90
2022-08-26T19:29:30.419Z,99.90
2022-08-26T19:31:58.744Z,99.90
2022-08-26T19:34:27.111Z,99.90
2022-08-26T19:36:56.971Z,99.90
2022-08-26T19:39:27.144Z,99.50
2022-08-26T19:41:55.238Z,99.70
2022-08-26T19:44:27.272Z,99.90
2022-08-26T19:46:55.323Z,99.90
2022-08-26T19:49:23.408Z,99.90
2022-08-26T19:51:51.420Z,99.90
2022-08-26T19:54:22.797Z,99.90
2022-08-26T19:56:52.647Z,99.90
2022-08-26T19:59:20.886Z,99.90
2022-08-26T20:02:00.377Z,99.90
2022-08-26T20:04:29.997Z,99.90
2022-08-26T20:07:00.412Z,99.90
2022-08-26T20:09:29.268Z,99.90
2022-08-26T20:11:59.047Z,99.90
2022-08-26T20:14:27.955Z,99.90
2022-08-26T20:16:56.568Z,99.90
2022-08-26T20:19:42.525Z,99.90
2022-08-26T20:22:11.498Z,99.90
2022-08-26T20:24:42.803Z,99.90
2022-08-26T20:27:12.533Z,99.90
2022-08-26T20:29:41.006Z,99.90
2022-08-26T20:32:11.011Z,99.90
2022-08-26T20:34:40.101Z,99.90
2022-08-26T20:37:09.226Z,99.90
2022-08-26T20:39:37.460Z,99.90
2022-08-26T20:42:06.833Z,99.90
2022-08-26T20:44:54.987Z,99.90
2022-08-26T20:47:23.723Z,99.90
2022-08-26T20:49:52.495Z,99.90
2022-08-26T20:52:21.082Z,99.90
2022-08-26T20:54:49.120Z,99.90
2022-08-26T20:57:17.303Z,99.90
2022-08-26T20:59:47.708Z,99.90
2022-08-26T21:02:17.515Z,99.90
2022-08-26T21:04:45.676Z,99.90
2022-08-26T21:07:13.771Z,99.90
2022-08-26T21:09:42.143Z,99.90
2022-08-26T21:12:10.235Z,99.90
2022-08-26T21:14:38.352Z,99.90
2022-08-26T21:17:06.413Z,99.90
2022-08-26T21:19:35.728Z,99.90
2022-08-26T21:22:04.095Z,99.90
2022-08-26T21:24:33.965Z,99.90
2022-08-26T21:27:01.965Z,99.90
2022-08-26T21:29:30.059Z,99.90
2022-08-26T21:31:58.985Z,99.90
2022-08-26T21:34:27.103Z,99.90
2022-08-26T21:36:56.827Z,99.90
2022-08-26T21:39:26.213Z,99.90
2022-08-26T21:41:54.549Z,99.90
2022-08-26T21:44:22.543Z,99.90
2022-08-26T21:46:50.779Z,99.90
2022-08-26T21:49:18.853Z,99.90
2022-08-26T21:51:48.777Z,99.90
2022-08-26T21:54:19.041Z,99.90
2022-08-26T21:56:47.758Z,99.90
2022-08-26T21:59:18.384Z,99.90
2022-08-26T22:01:47.119Z,99.90
2022-08-26T22:04:15.908Z,99.90
2022-08-26T22:06:50.085Z,99.90
2022-08-26T22:09:22.852Z,99.90
2022-08-26T22:11:51.840Z,99.90
2022-08-26T22:14:21.979Z,99.90
2022-08-26T22:16:50.527Z,99.90
2022-08-26T22:19:21.087Z,99.90
2022-08-26T22:21:56.027Z,99.90
2022-08-26T22:24:26.927Z,99.90
2022-08-26T22:26:55.865Z,99.90
2022-08-26T22:29:25.165Z,99.90
2022-08-26T22:31:58.522Z,99.90
2022-08-26T22:34:38.733Z,99.90
2022-08-26T22:37:06.925Z,99.90
2022-08-26T22:39:39.280Z,99.90
2022-08-26T22:42:07.575Z,99.90
2022-08-26T22:44:37.548Z,99.90
2022-08-26T22:47:08.887Z,99.90
2022-08-26T22:49:44.128Z,99.90
2022-08-26T22:52:15.196Z,99.90
2022-08-26T22:54:45.778Z,99.90
2022-08-26T22:57:15.786Z,99.90
2022-08-26T22:59:43.751Z,99.90
2022-08-26T23:02:19.205Z,99.90
2022-08-26T23:04:47.268Z,99.90
2022-08-26T23:07:18.444Z,99.90
2022-08-26T23:09:47.946Z,99.90
2022-08-26T23:12:18.040Z,99.90
2022-08-26T23:14:46.211Z,99.90
2022-08-26T23:17:14.429Z,99.90
2022-08-26T23:19:45.294Z,99.90
2022-08-26T23:22:13.299Z,99.90
2022-08-26T23:24:41.506Z,99.90
2022-08-26T23:27:11.210Z,99.90
2022-08-26T23:29:41.805Z,99.90
2022-08-26T23:32:10.212Z,99.90
2022-08-26T23:34:56.110Z,99.90
2022-08-26T23:37:24.509Z,99.90
2022-08-26T23:39:55.085Z,99.90
2022-08-26T23:42:24.626Z,99.90
2022-08-26T23:44:59.290Z,99.90
2022-08-26T23:47:33.942Z,99.90
2022-08-26T23:50:04.208Z,99.90
2022-08-26T23:52:49.668Z,99.90
2022-08-26T23:55:17.874Z,99.90
2022-08-26T23:57:47.334Z,99.90
